Main page
METAR-TAF:

METAR-TAF

Airports :

Cascais Municipal Aerodrome

Cascais, Portugal

latitude: 38-43-32N, longitude: 009-21-19W, elevation: 99 m

Current weather observation

The report was made 1 hour and 12 minutes ago, at 21:30 UTC
Wind 22 kt from the North with gusts up to 33 kt
Temperature 15°C
Humidity 82%
Pressure 1019 hPa
Visibility 10 km or more
Few clouds at a height of 1300 ft

METAR: LPCS 052130Z 35022G33KT 9999 FEW013 15/12 Q1019

Time: 23:42 (22:42 UTC)

Forecast

The report was made 8 hours and 42 minutes ago, at 14:00 UTC
Forecast valid from 05 at 15 UTC to 05 at 24 UTC
Wind 17 kt from the North
Visibility 10 km or more
Few clouds at a height of 2500 ft
Probability 40% :
Temporary
from 05 at 15 UTC to 05 at 21 UTC
Wind 22 kt from the North/Northwest with gusts up to 32 kt
Becoming
from 05 at 22 UTC to 05 at 24 UTC
Wind 8 kt from the North

TAF: LPCS 051400Z 0515/0524 35017KT 9999 FEW025 PROB40 TEMPO 0515/0521 34022G32KT BECMG 0522/0524 36008KT

Weather observations and forecasts of more than 4000 airports (METAR and TAF reports).

The available stations are represented by yellow and red dots on the map.

Hover mouse over dot to see the name of the station.

Then click to see weather observations and forecasts.

To change the map : click on the green buttons with a black cross to zoom in, on the green button with a dash to zoom out, or on the green arrows for adjacent maps.


METAR-TAF: